Time;durP1;ratioP1;P1;durP2;ratioP2;P2;SDS_P1;SDS_P2;PMS_P1;PMS_P2;Temp;Humidity;BMP_temperature;BMP_pressure;BME280_temperature;BME280_humidity;BME280_pressure;Samples;Min_cycle;Max_cycle;Signal;HPM_P1;HPM_P2
2023/09/03 00:00:58;;;;;;;4.57;3.17;;;;;;;;;;5072896;28;20059;-70
2023/09/03 00:03:23;;;;;;;5.25;2.67;;;;;;;;;;5054745;28;20024;-70
2023/09/03 00:05:56;;;;;;;5.13;3.00;;;;;;;;;;5074666;28;20034;-70
2023/09/03 00:08:23;;;;;;;7.93;2.92;;;;;;;;;;5077139;28;20056;-70
2023/09/03 00:10:52;;;;;;;8.02;3.42;;;;;;;;;;5058901;28;20024;-70
2023/09/03 00:13:17;;;;;;;5.85;2.80;;;;;;;;;;5075949;28;20596;-70
2023/09/03 00:15:43;;;;;;;5.20;2.90;;;;;;;;;;5076540;28;20037;-70
2023/09/03 00:18:11;;;;;;;7.15;2.97;;;;;;;;;;5076380;28;20020;-70
2023/09/03 00:20:36;;;;;;;9.95;3.10;;;;;;;;;;5058841;28;20020;-70
2023/09/03 00:23:02;;;;;;;4.25;2.70;;;;;;;;;;5076298;28;20025;-70
2023/09/03 00:25:27;;;;;;;8.52;2.67;;;;;;;;;;5075929;28;20027;-70
2023/09/03 00:27:52;;;;;;;3.83;2.45;;;;;;;;;;5058051;28;20032;-70
2023/09/03 00:30:17;;;;;;;3.83;2.20;;;;;;;;;;5076129;28;20086;-70
2023/09/03 00:32:43;;;;;;;6.97;2.60;;;;;;;;;;5076084;28;20039;-70
2023/09/03 00:35:08;;;;;;;3.58;2.25;;;;;;;;;;5076290;28;20021;-70
2023/09/03 00:37:33;;;;;;;3.58;2.50;;;;;;;;;;5076078;28;20116;-70
2023/09/03 00:39:59;;;;;;;6.18;2.70;;;;;;;;;;5057682;28;20029;-70
2023/09/03 00:42:24;;;;;;;5.05;2.55;;;;;;;;;;5076110;28;20110;-70
2023/09/03 00:44:49;;;;;;;5.63;2.40;;;;;;;;;;5076421;28;20028;-70
2023/09/03 00:47:17;;;;;;;4.80;3.38;;;;;;;;;;5075920;28;20024;-70
2023/09/03 00:49:43;;;;;;;3.92;2.45;;;;;;;;;;5058226;28;20024;-70
2023/09/03 00:52:09;;;;;;;5.22;2.60;;;;;;;;;;5075795;28;20032;-70
2023/09/03 00:54:34;;;;;;;4.18;2.50;;;;;;;;;;5075216;28;20039;-70
2023/09/03 00:57:01;;;;;;;4.05;2.35;;;;;;;;;;5075783;28;20474;-70
2023/09/03 00:59:27;;;;;;;4.32;2.30;;;;;;;;;;5075586;28;20107;-70
2023/09/03 01:01:53;;;;;;;4.20;2.55;;;;;;;;;;5075392;28;20031;-70
2023/09/03 01:04:18;;;;;;;4.50;2.22;;;;;;;;;;5057841;28;20020;-70
2023/09/03 01:06:45;;;;;;;4.50;2.35;;;;;;;;;;5057627;28;20029;-70
2023/09/03 01:09:10;;;;;;;7.35;2.33;;;;;;;;;;5057459;28;20028;-70
2023/09/03 01:11:44;;;;;;;3.85;2.08;;;;;;;;;;5057887;28;20020;-70
2023/09/03 01:14:39;;;;;;;5.75;2.33;;;;;;;;;;5057660;28;20478;-70
2023/09/03 01:17:10;;;;;;;2.83;1.90;;;;;;;;;;5007021;28;20517;-69
2023/09/03 01:20:11;;;;;;;3.85;2.28;;;;;;;;;;5057495;28;20047;-70
2023/09/03 01:22:51;;;;;;;4.55;2.30;;;;;;;;;;5075224;28;20021;-70
2023/09/03 01:25:28;;;;;;;3.53;2.22;;;;;;;;;;5057478;28;20024;-70
2023/09/03 01:28:25;;;;;;;4.65;2.63;;;;;;;;;;5056931;28;20440;-70
2023/09/03 01:30:58;;;;;;;5.25;2.63;;;;;;;;;;5075217;28;20044;-70
2023/09/03 01:33:26;;;;;;;4.07;2.33;;;;;;;;;;5075106;28;20025;-70
2023/09/03 01:35:53;;;;;;;5.57;2.45;;;;;;;;;;5074445;28;20174;-70
2023/09/03 01:38:19;;;;;;;4.50;2.40;;;;;;;;;;5057256;28;20028;-70
2023/09/03 01:40:47;;;;;;;3.50;2.03;;;;;;;;;;5074863;28;20509;-70
2023/09/03 01:43:12;;;;;;;3.55;2.10;;;;;;;;;;5074883;28;20020;-70
2023/09/03 01:45:45;;;;;;;6.20;2.35;;;;;;;;;;5074858;28;20032;-70
2023/09/03 01:48:27;;;;;;;6.78;2.70;;;;;;;;;;5056337;28;20025;-70
2023/09/03 01:51:10;;;;;;;5.15;2.70;;;;;;;;;;5056749;28;20032;-70
2023/09/03 01:53:48;;;;;;;4.90;2.15;;;;;;;;;;5057529;28;20036;-70
2023/09/03 01:56:14;;;;;;;6.90;2.50;;;;;;;;;;5056799;28;20108;-70
2023/09/03 01:58:41;;;;;;;3.85;2.10;;;;;;;;;;5056764;28;20479;-70
2023/09/03 02:01:08;;;;;;;6.70;2.40;;;;;;;;;;5056068;28;20024;-70
2023/09/03 02:03:33;;;;;;;4.88;2.35;;;;;;;;;;5056600;28;20028;-70
2023/09/03 02:05:58;;;;;;;4.13;2.40;;;;;;;;;;5039774;28;20033;-70
2023/09/03 02:08:24;;;;;;;6.07;2.80;;;;;;;;;;5074389;28;20386;-70
2023/09/03 02:10:49;;;;;;;5.90;2.40;;;;;;;;;;5073632;28;20056;-70
2023/09/03 02:13:14;;;;;;;8.32;2.95;;;;;;;;;;5074256;28;20021;-70
2023/09/03 02:15:39;;;;;;;5.97;2.45;;;;;;;;;;5074231;28;20107;-70
2023/09/03 02:18:05;;;;;;;3.50;2.45;;;;;;;;;;5074465;28;20405;-70
2023/09/03 02:20:30;;;;;;;3.63;2.13;;;;;;;;;;5056116;28;20036;-70
2023/09/03 02:22:55;;;;;;;4.25;1.88;;;;;;;;;;5073543;28;20032;-70
2023/09/03 02:25:21;;;;;;;6.88;2.55;;;;;;;;;;5074230;28;20027;-70
2023/09/03 02:27:46;;;;;;;11.07;2.65;;;;;;;;;;5073874;28;20024;-70
2023/09/03 02:30:12;;;;;;;4.15;1.77;;;;;;;;;;5073849;28;20043;-70
2023/09/03 02:32:37;;;;;;;3.92;2.13;;;;;;;;;;5055485;28;20151;-70
2023/09/03 02:35:02;;;;;;;4.30;2.10;;;;;;;;;;5074105;28;20107;-70
2023/09/03 02:37:28;;;;;;;5.53;2.35;;;;;;;;;;5069781;28;20016;-70
2023/09/03 02:39:53;;;;;;;4.00;2.30;;;;;;;;;;5056873;28;20449;-70
2023/09/03 02:42:18;;;;;;;6.28;2.10;;;;;;;;;;5051493;28;20024;-70
2023/09/03 02:44:44;;;;;;;8.73;2.28;;;;;;;;;;5063326;28;20020;-70
2023/09/03 02:47:09;;;;;;;3.45;2.25;;;;;;;;;;5045686;28;20483;-70
2023/09/03 02:49:34;;;;;;;4.38;1.80;;;;;;;;;;5063119;28;20036;-70
2023/09/03 02:52:00;;;;;;;3.92;2.47;;;;;;;;;;5051227;28;20390;-70
2023/09/03 02:54:25;;;;;;;11.00;2.42;;;;;;;;;;5033591;28;20056;-70
2023/09/03 02:56:50;;;;;;;3.42;2.03;;;;;;;;;;5033426;28;20021;-70
2023/09/03 02:59:15;;;;;;;5.57;2.00;;;;;;;;;;5033696;28;20496;-70
2023/09/03 03:01:42;;;;;;;2.55;1.88;;;;;;;;;;5033099;28;20108;-70
2023/09/03 03:04:07;;;;;;;4.05;2.53;;;;;;;;;;5033463;28;20052;-70
2023/09/03 03:06:32;;;;;;;8.43;2.17;;;;;;;;;;5015760;28;20135;-70
2023/09/03 03:08:58;;;;;;;4.47;2.40;;;;;;;;;;5050438;28;20031;-70
2023/09/03 03:11:23;;;;;;;2.80;1.80;;;;;;;;;;5074017;28;20027;-69
2023/09/03 03:13:51;;;;;;;4.78;2.00;;;;;;;;;;5055106;28;20105;-70
2023/09/03 03:16:17;;;;;;;4.60;2.13;;;;;;;;;;5073399;28;20096;-69
2023/09/03 03:18:45;;;;;;;5.00;2.28;;;;;;;;;;5055191;28;20529;-70
2023/09/03 03:21:14;;;;;;;3.60;1.90;;;;;;;;;;5055373;28;20107;-69
2023/09/03 03:23:40;;;;;;;3.58;2.22;;;;;;;;;;5072288;28;20204;-70
2023/09/03 03:26:05;;;;;;;4.78;2.13;;;;;;;;;;5018245;28;20055;-70
2023/09/03 03:28:32;;;;;;;6.18;2.05;;;;;;;;;;5053179;28;20067;-70
2023/09/03 03:31:07;;;;;;;8.45;1.98;;;;;;;;;;5035195;28;20120;-70
2023/09/03 03:33:32;;;;;;;4.28;2.30;;;;;;;;;;5052862;28;20040;-70
2023/09/03 03:35:59;;;;;;;4.68;2.50;;;;;;;;;;5052383;28;20017;-70
2023/09/03 03:38:24;;;;;;;5.30;2.20;;;;;;;;;;5035082;28;20099;-70
2023/09/03 03:40:49;;;;;;;3.45;2.50;;;;;;;;;;5052401;28;20028;-69
2023/09/03 03:43:15;;;;;;;4.03;2.38;;;;;;;;;;5055573;28;20441;-70
2023/09/03 03:45:40;;;;;;;4.63;2.67;;;;;;;;;;5072359;28;20028;-70
2023/09/03 03:48:05;;;;;;;7.47;3.08;;;;;;;;;;5054838;28;20055;-70
2023/09/03 03:50:31;;;;;;;4.63;2.92;;;;;;;;;;5072708;28;20040;-70
2023/09/03 03:52:56;;;;;;;7.13;2.42;;;;;;;;;;5054435;28;20051;-70
2023/09/03 03:55:21;;;;;;;7.40;2.60;;;;;;;;;;5053785;28;20048;-70
2023/09/03 03:57:47;;;;;;;5.53;2.42;;;;;;;;;;5072587;28;20024;-70
2023/09/03 04:00:13;;;;;;;11.13;3.15;;;;;;;;;;5072372;28;20067;-70
2023/09/03 04:02:38;;;;;;;7.30;2.15;;;;;;;;;;5072663;28;20162;-70
2023/09/03 04:05:04;;;;;;;6.85;2.30;;;;;;;;;;5071772;28;20020;-70
2023/09/03 04:07:29;;;;;;;4.00;2.70;;;;;;;;;;5072569;28;20036;-70
2023/09/03 04:09:54;;;;;;;5.03;2.63;;;;;;;;;;5054347;28;20036;-70
2023/09/03 04:12:20;;;;;;;3.42;1.90;;;;;;;;;;5072020;28;20478;-70
2023/09/03 04:14:45;;;;;;;5.00;2.22;;;;;;;;;;5072412;28;20027;-70
2023/09/03 04:17:10;;;;;;;5.35;1.83;;;;;;;;;;5072209;28;20021;-70
2023/09/03 04:19:36;;;;;;;3.55;2.30;;;;;;;;;;5072107;28;20036;-70
2023/09/03 04:22:01;;;;;;;4.25;2.20;;;;;;;;;;5072359;28;20024;-70
2023/09/03 04:24:26;;;;;;;4.57;2.10;;;;;;;;;;5072294;28;20062;-70
2023/09/03 04:26:51;;;;;;;7.00;2.22;;;;;;;;;;5071933;28;20024;-70
2023/09/03 04:29:17;;;;;;;3.90;2.28;;;;;;;;;;5071982;28;20035;-70
2023/09/03 04:31:42;;;;;;;3.38;2.25;;;;;;;;;;5072607;28;20103;-70
2023/09/03 04:34:08;;;;;;;3.42;2.13;;;;;;;;;;5071309;28;20601;-70
2023/09/03 04:36:34;;;;;;;4.63;2.15;;;;;;;;;;5071768;28;20501;-70
2023/09/03 04:38:59;;;;;;;3.90;2.42;;;;;;;;;;5071878;28;20028;-70
2023/09/03 04:41:25;;;;;;;4.28;2.10;;;;;;;;;;5071558;28;20501;-70
2023/09/03 04:43:50;;;;;;;3.58;2.03;;;;;;;;;;5053407;28;20111;-70
2023/09/03 04:46:15;;;;;;;2.97;2.08;;;;;;;;;;5036868;28;20025;-70
2023/09/03 04:48:40;;;;;;;2.72;1.95;;;;;;;;;;5071907;28;20024;-70
2023/09/03 04:51:07;;;;;;;3.78;2.10;;;;;;;;;;5053300;28;20036;-70
2023/09/03 04:53:32;;;;;;;4.60;2.00;;;;;;;;;;5056773;28;20017;-70
2023/09/03 04:55:58;;;;;;;3.75;2.05;;;;;;;;;;5074653;28;20138;-70
2023/09/03 04:58:23;;;;;;;3.70;1.92;;;;;;;;;;5075194;28;20111;-70
2023/09/03 05:00:48;;;;;;;6.53;2.30;;;;;;;;;;5075076;28;20028;-70
2023/09/03 05:03:13;;;;;;;3.75;1.85;;;;;;;;;;5057119;28;20025;-70
2023/09/03 05:05:42;;;;;;;3.33;2.08;;;;;;;;;;5075050;28;20028;-70
2023/09/03 05:08:08;;;;;;;2.92;1.90;;;;;;;;;;5057129;28;20029;-70
2023/09/03 05:10:33;;;;;;;3.30;2.03;;;;;;;;;;5056347;28;20443;-70
2023/09/03 05:12:59;;;;;;;3.92;1.88;;;;;;;;;;5074770;28;20016;-70
2023/09/03 05:15:24;;;;;;;5.38;2.10;;;;;;;;;;5074903;28;20021;-70
2023/09/03 05:17:49;;;;;;;3.42;1.90;;;;;;;;;;5056632;28;20150;-70
2023/09/03 05:20:14;;;;;;;5.22;2.20;;;;;;;;;;5056501;28;20020;-70
2023/09/03 05:22:40;;;;;;;4.55;2.40;;;;;;;;;;5074840;28;20474;-70
2023/09/03 05:25:06;;;;;;;4.55;2.72;;;;;;;;;;5074305;28;20081;-70
2023/09/03 05:27:31;;;;;;;4.80;2.40;;;;;;;;;;5074117;28;20035;-70
2023/09/03 05:29:56;;;;;;;4.85;2.40;;;;;;;;;;5074290;28;20020;-70
2023/09/03 05:32:22;;;;;;;7.63;2.85;;;;;;;;;;5074716;28;20078;-70
2023/09/03 05:34:47;;;;;;;6.30;2.60;;;;;;;;;;5074237;28;20027;-70
2023/09/03 05:37:13;;;;;;;5.50;2.95;;;;;;;;;;5074420;28;20048;-70
2023/09/03 05:39:39;;;;;;;7.30;3.97;;;;;;;;;;5074094;28;20134;-70
2023/09/03 05:42:04;;;;;;;6.25;3.60;;;;;;;;;;5056097;28;20025;-70
2023/09/03 05:44:30;;;;;;;5.25;3.42;;;;;;;;;;5074368;28;20059;-70
2023/09/03 05:46:55;;;;;;;5.28;3.13;;;;;;;;;;5074870;28;20031;-69
2023/09/03 05:49:20;;;;;;;6.60;3.40;;;;;;;;;;5074561;28;20029;-70
2023/09/03 05:51:45;;;;;;;7.38;3.28;;;;;;;;;;5104203;22;20123;-74
2023/09/03 05:54:11;;;;;;;9.07;3.70;;;;;;;;;;5074635;28;20025;-75
2023/09/03 05:56:36;;;;;;;6.97;3.15;;;;;;;;;;5075059;28;20376;-74
2023/09/03 05:59:05;;;;;;;5.85;3.35;;;;;;;;;;5075051;28;20082;-75
2023/09/03 06:01:31;;;;;;;6.47;3.40;;;;;;;;;;5057427;28;20032;-74
2023/09/03 06:03:57;;;;;;;10.02;4.72;;;;;;;;;;5056775;28;20111;-75
2023/09/03 06:06:22;;;;;;;13.15;5.80;;;;;;;;;;5056208;28;20025;-74
2023/09/03 06:08:47;;;;;;;14.32;5.93;;;;;;;;;;5075174;28;20036;-75
2023/09/03 06:11:13;;;;;;;10.65;5.65;;;;;;;;;;5057261;28;20036;-75
2023/09/03 06:13:39;;;;;;;15.38;6.50;;;;;;;;;;5056875;28;20025;-75
2023/09/03 06:16:04;;;;;;;10.98;5.15;;;;;;;;;;5056942;28;20028;-75
2023/09/03 06:18:29;;;;;;;12.95;5.90;;;;;;;;;;5074523;28;20398;-75
2023/09/03 06:20:55;;;;;;;9.65;4.20;;;;;;;;;;5074085;28;20111;-75
2023/09/03 06:23:21;;;;;;;15.18;3.70;;;;;;;;;;5039839;28;20024;-75
2023/09/03 06:25:46;;;;;;;6.18;3.60;;;;;;;;;;5056826;28;20024;-75
2023/09/03 06:28:12;;;;;;;8.57;4.13;;;;;;;;;;5056903;28;20031;-75
2023/09/03 06:30:37;;;;;;;6.43;3.78;;;;;;;;;;5056306;28;20024;-75
2023/09/03 06:33:03;;;;;;;8.52;4.28;;;;;;;;;;5055941;28;20034;-75
2023/09/03 06:35:28;;;;;;;9.20;4.10;;;;;;;;;;5056397;28;20024;-75
2023/09/03 06:37:55;;;;;;;10.20;4.80;;;;;;;;;;5056756;28;20481;-75
2023/09/03 06:40:21;;;;;;;7.55;4.07;;;;;;;;;;5074400;28;20031;-75
2023/09/03 06:42:46;;;;;;;6.75;3.90;;;;;;;;;;5056523;28;20103;-75
2023/09/03 06:45:12;;;;;;;8.93;3.53;;;;;;;;;;5073902;28;20078;-76
2023/09/03 06:47:38;;;;;;;6.90;3.42;;;;;;;;;;5074586;28;20020;-75
2023/09/03 06:50:05;;;;;;;7.63;3.40;;;;;;;;;;5056023;28;20119;-74
2023/09/03 06:52:30;;;;;;;5.13;3.75;;;;;;;;;;5073827;28;20020;-75
2023/09/03 06:54:56;;;;;;;8.68;3.45;;;;;;;;;;5056152;28;20031;-75
2023/09/03 06:57:21;;;;;;;8.02;3.47;;;;;;;;;;5056324;28;20074;-76
2023/09/03 06:59:46;;;;;;;5.88;3.05;;;;;;;;;;5073545;28;20028;-75
2023/09/03 07:02:12;;;;;;;5.35;3.03;;;;;;;;;;5074091;28;20024;-74
2023/09/03 07:04:37;;;;;;;5.65;3.03;;;;;;;;;;5056261;28;20024;-74
2023/09/03 07:07:03;;;;;;;5.43;3.13;;;;;;;;;;5039235;28;20036;-75
2023/09/03 07:09:29;;;;;;;6.80;3.22;;;;;;;;;;5055572;28;20497;-75
2023/09/03 07:11:54;;;;;;;7.82;3.47;;;;;;;;;;5055783;28;20024;-75
2023/09/03 07:14:20;;;;;;;8.32;3.47;;;;;;;;;;5073568;28;20095;-75
2023/09/03 07:16:45;;;;;;;6.85;2.78;;;;;;;;;;5055876;28;20017;-75
2023/09/03 07:19:10;;;;;;;7.47;3.00;;;;;;;;;;5073213;28;20131;-76
2023/09/03 07:21:36;;;;;;;6.85;3.45;;;;;;;;;;5038970;28;20032;-75
2023/09/03 07:24:01;;;;;;;5.30;2.83;;;;;;;;;;5073767;28;20027;-75
2023/09/03 07:26:26;;;;;;;8.82;3.05;;;;;;;;;;5073456;28;20040;-75
2023/09/03 07:28:52;;;;;;;8.35;3.20;;;;;;;;;;5073527;28;20074;-75
2023/09/03 07:31:21;;;;;;;6.07;2.97;;;;;;;;;;5073088;28;20052;-75
2023/09/03 07:33:47;;;;;;;8.68;2.95;;;;;;;;;;5055555;28;20078;-75
2023/09/03 07:36:12;;;;;;;6.28;3.00;;;;;;;;;;5055313;28;20334;-75
2023/09/03 07:38:38;;;;;;;6.63;2.60;;;;;;;;;;5074085;28;20024;-75
2023/09/03 07:41:03;;;;;;;6.50;2.58;;;;;;;;;;5055656;28;20028;-75
2023/09/03 07:43:29;;;;;;;8.75;2.58;;;;;;;;;;5073469;28;20016;-75
2023/09/03 07:45:54;;;;;;;5.55;3.05;;;;;;;;;;5054983;28;20048;-75
2023/09/03 07:48:20;;;;;;;6.47;2.70;;;;;;;;;;5073605;28;20032;-75
2023/09/03 07:50:45;;;;;;;4.75;2.22;;;;;;;;;;5055555;28;20024;-75
2023/09/03 07:53:10;;;;;;;5.85;2.22;;;;;;;;;;5055153;28;20055;-75
2023/09/03 07:55:36;;;;;;;5.50;2.85;;;;;;;;;;5073408;28;20016;-75
2023/09/03 07:58:01;;;;;;;5.85;2.50;;;;;;;;;;5073145;28;20505;-75
2023/09/03 08:00:27;;;;;;;5.25;2.65;;;;;;;;;;5054990;28;20032;-76
2023/09/03 08:02:52;;;;;;;6.78;2.88;;;;;;;;;;5055329;28;20040;-75
2023/09/03 08:05:17;;;;;;;6.13;3.10;;;;;;;;;;5055123;28;20020;-72
2023/09/03 08:07:43;;;;;;;4.97;2.53;;;;;;;;;;5072980;28;20163;-71
2023/09/03 08:10:08;;;;;;;4.10;2.45;;;;;;;;;;5072813;28;20035;-72
2023/09/03 08:12:34;;;;;;;7.60;2.95;;;;;;;;;;5043518;28;20495;-71
2023/09/03 08:14:59;;;;;;;4.85;2.40;;;;;;;;;;5031896;28;20017;-71
2023/09/03 08:17:26;;;;;;;6.38;2.42;;;;;;;;;;5032069;28;20468;-71
2023/09/03 08:19:51;;;;;;;6.63;2.70;;;;;;;;;;5032193;28;20030;-71
2023/09/03 08:22:16;;;;;;;7.30;2.63;;;;;;;;;;5032119;28;20484;-71
2023/09/03 08:24:42;;;;;;;4.95;2.88;;;;;;;;;;5031854;28;20033;-71
2023/09/03 08:27:08;;;;;;;9.57;2.65;;;;;;;;;;5034231;28;20061;-72
2023/09/03 08:29:33;;;;;;;5.38;2.58;;;;;;;;;;5035527;28;20113;-72
2023/09/03 08:31:59;;;;;;;3.95;2.22;;;;;;;;;;5036912;28;20108;-73
2023/09/03 08:34:24;;;;;;;6.32;2.35;;;;;;;;;;5036440;28;20472;-73
2023/09/03 08:36:49;;;;;;;5.57;2.35;;;;;;;;;;5018089;28;20024;-73
2023/09/03 08:39:14;;;;;;;10.88;2.85;;;;;;;;;;5010308;28;20101;-72
2023/09/03 08:41:40;;;;;;;4.90;2.05;;;;;;;;;;5024570;28;20025;-73
2023/09/03 08:44:13;;;;;;;5.00;2.40;;;;;;;;;;5030568;28;20029;-73
2023/09/03 08:46:39;;;;;;;4.65;2.75;;;;;;;;;;5013043;28;20546;-73
2023/09/03 08:49:05;;;;;;;5.57;2.80;;;;;;;;;;5002209;28;20495;-73
2023/09/03 08:51:31;;;;;;;5.03;2.40;;;;;;;;;;5031635;28;20056;-72
2023/09/03 08:53:58;;;;;;;6.07;2.63;;;;;;;;;;5015902;28;20033;-73
2023/09/03 08:56:23;;;;;;;4.57;1.90;;;;;;;;;;4998695;28;20034;-73
2023/09/03 08:58:49;;;;;;;8.45;2.40;;;;;;;;;;5016250;28;20029;-72
2023/09/03 09:01:16;;;;;;;5.93;2.05;;;;;;;;;;5016493;28;20033;-73
2023/09/03 09:03:42;;;;;;;7.25;2.10;;;;;;;;;;4982348;28;20435;-72
2023/09/03 09:06:08;;;;;;;10.20;2.40;;;;;;;;;;5016499;28;20029;-73
2023/09/03 09:08:33;;;;;;;5.05;2.08;;;;;;;;;;5015630;28;20140;-73
2023/09/03 09:11:04;;;;;;;6.75;2.45;;;;;;;;;;5014999;28;20049;-73
2023/09/03 09:13:34;;;;;;;5.40;2.58;;;;;;;;;;5014985;28;20079;-73
2023/09/03 09:16:00;;;;;;;4.18;2.42;;;;;;;;;;5014656;28;20048;-73
2023/09/03 09:18:25;;;;;;;4.53;2.42;;;;;;;;;;5015599;28;20025;-73
2023/09/03 09:20:51;;;;;;;5.60;2.20;;;;;;;;;;5015881;28;20034;-73
2023/09/03 09:23:22;;;;;;;3.03;2.65;;;;;;;;;;5014539;28;20071;-73
2023/09/03 09:25:47;;;;;;;6.38;2.28;;;;;;;;;;5014572;28;20025;-73
2023/09/03 09:28:13;;;;;;;4.15;2.15;;;;;;;;;;5015550;28;20037;-73
2023/09/03 09:30:53;;;;;;;5.50;1.77;;;;;;;;;;4997292;28;20037;-73
2023/09/03 09:33:18;;;;;;;3.25;1.80;;;;;;;;;;4997959;28;20017;-73
2023/09/03 09:35:43;;;;;;;7.35;2.22;;;;;;;;;;5015377;28;20080;-73
2023/09/03 09:38:09;;;;;;;8.52;2.67;;;;;;;;;;5014647;28;20025;-73
2023/09/03 09:40:36;;;;;;;5.50;1.92;;;;;;;;;;5030604;28;20548;-73
2023/09/03 09:43:04;;;;;;;5.95;2.47;;;;;;;;;;5015301;28;20105;-72
2023/09/03 09:45:33;;;;;;;5.32;2.78;;;;;;;;;;4994521;28;20400;-72
2023/09/03 09:48:06;;;;;;;4.95;1.90;;;;;;;;;;4977577;28;20109;-73
2023/09/03 09:50:36;;;;;;;5.82;2.33;;;;;;;;;;4978465;28;20040;-72
2023/09/03 09:53:03;;;;;;;3.97;2.03;;;;;;;;;;4978034;28;20033;-72
2023/09/03 09:55:31;;;;;;;5.30;2.17;;;;;;;;;;4978205;28;20035;-72
2023/09/03 09:57:56;;;;;;;4.22;2.03;;;;;;;;;;4995056;28;20085;-72
2023/09/03 10:00:33;;;;;;;6.30;2.33;;;;;;;;;;5015863;28;20480;-73
2023/09/03 10:02:58;;;;;;;6.53;2.45;;;;;;;;;;5030528;28;20392;-73
2023/09/03 10:05:23;;;;;;;5.72;2.05;;;;;;;;;;4997473;28;20029;-73
2023/09/03 10:07:49;;;;;;;3.72;1.80;;;;;;;;;;5014931;28;20018;-73
2023/09/03 10:10:15;;;;;;;5.47;1.98;;;;;;;;;;5030063;28;20026;-72
2023/09/03 10:12:40;;;;;;;7.82;3.22;;;;;;;;;;5014551;28;20025;-73
2023/09/03 10:15:06;;;;;;;5.65;2.47;;;;;;;;;;5030413;28;20032;-72
2023/09/03 10:17:33;;;;;;;3.92;2.25;;;;;;;;;;5014082;28;20026;-72
2023/09/03 10:20:04;;;;;;;5.65;2.47;;;;;;;;;;5029533;28;20447;-72
2023/09/03 10:22:31;;;;;;;4.18;1.80;;;;;;;;;;5029851;28;20032;-73
2023/09/03 10:25:03;;;;;;;4.38;1.90;;;;;;;;;;5013172;28;20028;-73
2023/09/03 10:27:32;;;;;;;3.45;1.95;;;;;;;;;;5014784;28;20022;-72
2023/09/03 10:29:58;;;;;;;4.15;2.08;;;;;;;;;;5030218;28;20036;-72
2023/09/03 10:32:25;;;;;;;6.60;2.33;;;;;;;;;;5028951;28;20037;-72
2023/09/03 10:34:50;;;;;;;5.45;1.98;;;;;;;;;;5014728;28;20045;-72
2023/09/03 10:37:16;;;;;;;4.00;1.75;;;;;;;;;;5014194;28;20026;-72
2023/09/03 10:39:45;;;;;;;3.33;1.90;;;;;;;;;;5029607;28;20052;-73
2023/09/03 10:42:29;;;;;;;5.55;2.08;;;;;;;;;;4997160;28;20484;-73
2023/09/03 10:44:56;;;;;;;4.15;1.92;;;;;;;;;;5014051;28;20472;-72
2023/09/03 10:47:22;;;;;;;6.32;2.28;;;;;;;;;;4996468;28;20037;-72
2023/09/03 10:49:48;;;;;;;6.20;2.03;;;;;;;;;;5013541;28;20491;-73
2023/09/03 10:52:26;;;;;;;4.93;1.73;;;;;;;;;;5013187;28;20496;-73
2023/09/03 10:55:10;;;;;;;5.07;1.92;;;;;;;;;;5014215;28;20083;-72
2023/09/03 10:57:35;;;;;;;3.80;1.67;;;;;;;;;;5013525;28;20032;-73
2023/09/03 11:00:04;;;;;;;3.53;1.67;;;;;;;;;;5012587;28;20089;-72
2023/09/03 11:02:29;;;;;;;4.70;1.80;;;;;;;;;;5014156;28;20022;-72
2023/09/03 11:05:14;;;;;;;5.63;2.55;;;;;;;;;;5013810;28;20480;-72
2023/09/03 11:07:43;;;;;;;5.05;1.80;;;;;;;;;;5014138;28;20061;-72
2023/09/03 11:10:21;;;;;;;5.93;1.92;;;;;;;;;;5028666;28;20026;-73
2023/09/03 11:12:47;;;;;;;4.03;1.73;;;;;;;;;;5013949;28;20029;-73
2023/09/03 11:15:13;;;;;;;4.57;1.98;;;;;;;;;;5029101;28;20032;-73
2023/09/03 11:17:41;;;;;;;5.60;2.45;;;;;;;;;;5013919;28;20038;-73
2023/09/03 11:20:08;;;;;;;3.95;2.13;;;;;;;;;;5013930;28;20028;-73
2023/09/03 11:22:37;;;;;;;5.78;2.33;;;;;;;;;;5013608;28;20104;-73
2023/09/03 11:25:03;;;;;;;5.53;2.10;;;;;;;;;;5013623;28;20476;-73
2023/09/03 11:27:28;;;;;;;5.90;2.15;;;;;;;;;;5012875;28;20033;-73
2023/09/03 11:30:05;;;;;;;3.00;1.88;;;;;;;;;;5013615;28;20022;-73
2023/09/03 11:32:37;;;;;;;2.72;2.00;;;;;;;;;;5012268;28;20054;-73
2023/09/03 11:35:02;;;;;;;6.25;1.83;;;;;;;;;;4996205;28;20030;-73
2023/09/03 11:37:28;;;;;;;3.35;1.60;;;;;;;;;;5013960;28;20412;-73
2023/09/03 11:39:53;;;;;;;4.10;1.90;;;;;;;;;;5028667;28;20112;-73
2023/09/03 11:42:18;;;;;;;6.60;2.15;;;;;;;;;;5028878;28;20026;-73
2023/09/03 11:44:49;;;;;;;7.18;2.75;;;;;;;;;;5014108;28;20026;-73
2023/09/03 11:47:15;;;;;;;4.75;1.85;;;;;;;;;;5028453;28;20380;-73
2023/09/03 11:49:45;;;;;;;5.50;2.00;;;;;;;;;;5013738;28;20041;-73
2023/09/03 11:52:14;;;;;;;4.40;2.35;;;;;;;;;;5013741;28;20029;-72
2023/09/03 11:54:40;;;;;;;7.47;2.47;;;;;;;;;;4995987;28;20033;-73
2023/09/03 11:57:11;;;;;;;6.28;2.47;;;;;;;;;;5029024;28;20017;-73
2023/09/03 11:59:36;;;;;;;5.07;2.40;;;;;;;;;;5028684;28;20116;-73
2023/09/03 12:02:02;;;;;;;10.45;2.50;;;;;;;;;;5031327;28;20057;-73
2023/09/03 12:04:28;;;;;;;4.28;2.13;;;;;;;;;;4999984;28;20026;-74
2023/09/03 12:06:53;;;;;;;5.40;2.15;;;;;;;;;;4999792;28;20034;-73
2023/09/03 12:09:23;;;;;;;6.78;2.50;;;;;;;;;;5017651;28;20121;-74
2023/09/03 12:11:48;;;;;;;11.98;3.30;;;;;;;;;;5017315;28;20435;-74
2023/09/03 12:14:29;;;;;;;4.68;2.40;;;;;;;;;;5032344;28;20022;-73
2023/09/03 12:16:54;;;;;;;6.43;2.22;;;;;;;;;;5032748;28;20018;-73
2023/09/03 12:19:20;;;;;;;7.80;2.75;;;;;;;;;;5017536;28;20028;-74
2023/09/03 12:21:50;;;;;;;5.80;2.60;;;;;;;;;;5032542;28;20438;-74
2023/09/03 12:24:15;;;;;;;5.90;2.08;;;;;;;;;;5015680;28;20030;-74
2023/09/03 12:26:40;;;;;;;5.20;2.35;;;;;;;;;;5032419;28;20026;-73
2023/09/03 12:29:21;;;;;;;4.20;2.40;;;;;;;;;;5017097;28;20026;-73
2023/09/03 12:31:47;;;;;;;4.32;1.98;;;;;;;;;;5016815;28;20029;-73
2023/09/03 12:34:15;;;;;;;4.13;2.17;;;;;;;;;;5016667;28;20026;-73
2023/09/03 12:36:54;;;;;;;5.75;2.72;;;;;;;;;;5032311;28;20459;-73
2023/09/03 12:39:40;;;;;;;7.32;2.53;;;;;;;;;;5032335;28;20400;-72
2023/09/03 12:42:07;;;;;;;6.38;3.22;;;;;;;;;;5016682;28;20442;-71
2023/09/03 12:44:33;;;;;;;6.05;2.85;;;;;;;;;;5032471;28;20076;-72
2023/09/03 12:46:59;;;;;;;12.70;3.50;;;;;;;;;;5016268;28;20026;-71
2023/09/03 12:49:27;;;;;;;6.75;2.53;;;;;;;;;;5016880;28;20033;-71
2023/09/03 12:51:53;;;;;;;5.43;3.00;;;;;;;;;;5016403;28;20033;-71
2023/09/03 12:54:18;;;;;;;7.15;3.00;;;;;;;;;;4999254;28;20396;-71
2023/09/03 12:56:44;;;;;;;8.77;3.28;;;;;;;;;;5032038;28;20029;-72
2023/09/03 12:59:09;;;;;;;8.80;3.17;;;;;;;;;;4998662;28;20036;-72
2023/09/03 13:01:37;;;;;;;3.97;2.42;;;;;;;;;;5016580;28;20037;-72
2023/09/03 13:04:03;;;;;;;4.78;3.03;;;;;;;;;;5016439;28;20384;-71
2023/09/03 13:06:28;;;;;;;3.58;2.28;;;;;;;;;;5031461;28;20029;-71
2023/09/03 13:08:54;;;;;;;6.28;3.00;;;;;;;;;;4993959;28;20042;-71
2023/09/03 13:11:19;;;;;;;4.78;2.72;;;;;;;;;;5010430;28;20026;-72
2023/09/03 13:13:51;;;;;;;3.90;2.33;;;;;;;;;;5010872;28;20025;-72
2023/09/03 13:16:17;;;;;;;5.13;2.42;;;;;;;;;;5010495;28;20022;-72
2023/09/03 13:18:45;;;;;;;5.28;2.90;;;;;;;;;;5009412;28;20055;-72
2023/09/03 13:21:11;;;;;;;6.05;2.67;;;;;;;;;;5015592;28;20473;-71
2023/09/03 13:23:36;;;;;;;7.90;3.30;;;;;;;;;;5005744;28;20442;-71
2023/09/03 13:26:02;;;;;;;5.82;2.80;;;;;;;;;;5031322;28;20116;-71
2023/09/03 13:28:27;;;;;;;5.30;2.58;;;;;;;;;;5015896;28;20117;-71
2023/09/03 13:30:53;;;;;;;7.45;3.33;;;;;;;;;;5031783;28;20040;-72
2023/09/03 13:33:18;;;;;;;9.93;3.05;;;;;;;;;;5015579;28;20056;-72
2023/09/03 13:35:50;;;;;;;5.22;2.35;;;;;;;;;;5016277;28;20029;-72
2023/09/03 13:38:15;;;;;;;4.40;2.38;;;;;;;;;;5015983;28;20049;-72
2023/09/03 13:40:41;;;;;;;5.78;2.70;;;;;;;;;;5015540;28;20053;-71
2023/09/03 13:43:06;;;;;;;5.88;2.63;;;;;;;;;;5030957;28;20029;-72
2023/09/03 13:45:31;;;;;;;4.50;2.42;;;;;;;;;;5014528;28;20025;-72
2023/09/03 13:47:57;;;;;;;6.95;3.25;;;;;;;;;;5015694;28;20032;-72
2023/09/03 13:50:24;;;;;;;7.38;3.10;;;;;;;;;;5015801;28;20030;-72
2023/09/03 13:52:50;;;;;;;5.85;2.97;;;;;;;;;;5015517;28;20025;-71
2023/09/03 13:55:15;;;;;;;4.88;3.10;;;;;;;;;;5015262;28;20487;-71
2023/09/03 13:57:41;;;;;;;4.93;2.53;;;;;;;;;;5015409;28;20026;-71
2023/09/03 14:00:07;;;;;;;4.10;2.17;;;;;;;;;;5030624;28;20129;-71
2023/09/03 14:02:32;;;;;;;5.15;2.85;;;;;;;;;;4997661;28;20536;-72
2023/09/03 14:05:00;;;;;;;7.18;3.00;;;;;;;;;;5015218;28;20072;-73
2023/09/03 14:07:25;;;;;;;5.93;2.33;;;;;;;;;;5015446;28;20080;-73
2023/09/03 14:09:57;;;;;;;5.15;1.90;;;;;;;;;;4997907;28;20479;-73
2023/09/03 14:12:24;;;;;;;6.57;2.47;;;;;;;;;;5030605;28;20157;-74
2023/09/03 14:14:50;;;;;;;4.07;2.70;;;;;;;;;;5030140;28;20388;-74
2023/09/03 14:17:15;;;;;;;4.47;2.00;;;;;;;;;;5029892;28;20018;-74
2023/09/03 14:19:41;;;;;;;8.25;3.13;;;;;;;;;;5015338;28;20029;-74
2023/09/03 14:22:06;;;;;;;6.13;2.20;;;;;;;;;;5015170;28;20032;-74
2023/09/03 14:24:36;;;;;;;5.72;2.50;;;;;;;;;;5015076;28;20448;-74
2023/09/03 14:27:01;;;;;;;8.77;3.00;;;;;;;;;;5029881;28;20054;-74
2023/09/03 14:29:26;;;;;;;7.72;2.60;;;;;;;;;;5030457;28;20462;-74
2023/09/03 14:31:53;;;;;;;5.45;2.95;;;;;;;;;;5014714;28;20054;-74
2023/09/03 14:34:19;;;;;;;4.20;2.95;;;;;;;;;;5014987;28;20112;-74
2023/09/03 14:36:44;;;;;;;11.50;2.90;;;;;;;;;;5014858;28;20037;-74
2023/09/03 14:39:10;;;;;;;7.88;2.40;;;;;;;;;;4997445;28;20018;-74
2023/09/03 14:41:35;;;;;;;6.47;2.67;;;;;;;;;;5029822;28;20033;-74